Time;durP1;ratioP1;P1;durP2;ratioP2;P2;SDS_P1;SDS_P2;PMS_P1;PMS_P2;Temp;Humidity;BMP_temperature;BMP_pressure;BME280_temperature;BME280_humidity;BME280_pressure;Samples;Min_cycle;Max_cycle;Signal;HPM_P1;HPM_P2
2021/11/26 00:00:09;;;;;;;0.52;0.52;;;5.70;99.90;;;;;;5053266;28;20035;-83
2021/11/26 00:02:35;;;;;;;0.50;0.50;;;5.70;99.90;;;;;;5054975;28;20043;-82
2021/11/26 00:05:03;;;;;;;0.00;0.00;;;5.70;99.90;;;;;;5055387;28;20443;-83
2021/11/26 00:07:28;;;;;;;3.03;0.88;;;5.70;99.90;;;;;;5054907;28;20028;-82
2021/11/26 00:09:54;;;;;;;0.73;0.73;;;5.80;99.90;;;;;;5054250;28;20033;-83
2021/11/26 00:12:20;;;;;;;0.98;0.50;;;5.80;99.90;;;;;;5055032;28;20028;-83
2021/11/26 00:15:09;;;;;;;0.00;0.00;;;5.80;99.90;;;;;;5053816;28;20421;-83
2021/11/26 00:17:44;;;;;;;1.23;1.13;;;5.80;99.90;;;;;;5055340;28;20035;-82
2021/11/26 00:20:10;;;;;;;1.52;1.45;;;5.80;99.90;;;;;;5055334;28;20032;-83
2021/11/26 00:22:36;;;;;;;2.90;1.38;;;5.80;99.90;;;;;;5054778;28;20502;-82
2021/11/26 00:25:02;;;;;;;0.25;0.25;;;5.80;99.90;;;;;;5054566;28;20586;-82
2021/11/26 00:27:27;;;;;;;0.63;0.63;;;5.80;99.90;;;;;;5053601;28;20116;-83
2021/11/26 00:29:53;;;;;;;0.00;0.00;;;5.80;99.90;;;;;;5053436;28;20025;-83
2021/11/26 00:32:19;;;;;;;0.00;0.00;;;5.80;99.90;;;;;;5053540;28;20009;-83
2021/11/26 00:34:45;;;;;;;6.72;1.75;;;5.80;99.90;;;;;;5052873;28;20087;-82
2021/11/26 00:37:10;;;;;;;0.00;0.00;;;5.80;99.90;;;;;;5054254;28;20021;-83
2021/11/26 00:39:36;;;;;;;0.00;0.00;;;5.80;99.90;;;;;;5054815;28;20037;-83
2021/11/26 00:42:02;;;;;;;0.28;0.28;;;5.80;99.90;;;;;;5054668;28;20028;-83
2021/11/26 00:44:27;;;;;;;0.00;0.00;;;5.80;99.90;;;;;;5054432;28;20037;-83
2021/11/26 00:46:53;;;;;;;0.47;0.40;;;5.80;99.90;;;;;;5052993;28;20079;-83
2021/11/26 00:49:19;;;;;;;0.32;0.28;;;5.80;99.90;;;;;;5054161;28;20025;-83
2021/11/26 00:51:44;;;;;;;0.90;0.28;;;5.80;99.90;;;;;;5054084;28;20028;-82
2021/11/26 00:54:10;;;;;;;2.05;1.50;;;5.80;99.90;;;;;;5053944;28;20501;-83
2021/11/26 00:56:35;;;;;;;0.03;0.03;;;5.80;99.90;;;;;;5051804;28;20108;-83
2021/11/26 00:59:01;;;;;;;0.00;0.00;;;5.80;99.90;;;;;;5052346;28;20406;-82
2021/11/26 01:01:27;;;;;;;0.00;0.00;;;5.70;99.90;;;;;;5053901;28;20472;-83
2021/11/26 01:03:53;;;;;;;0.00;0.00;;;5.70;99.90;;;;;;5054152;28;20419;-83
2021/11/26 01:06:18;;;;;;;0.00;0.00;;;5.60;99.90;;;;;;5053814;28;20074;-83
2021/11/26 01:08:44;;;;;;;0.35;0.35;;;5.50;99.90;;;;;;5053905;28;20033;-83
2021/11/26 01:11:09;;;;;;;0.82;0.82;;;5.40;99.90;;;;;;5052763;28;20415;-83
2021/11/26 01:13:35;;;;;;;0.13;0.13;;;5.40;99.90;;;;;;5054002;28;20021;-83
2021/11/26 01:16:01;;;;;;;0.00;0.00;;;5.20;99.90;;;;;;5053725;28;20539;-83
2021/11/26 01:18:27;;;;;;;0.20;0.20;;;5.20;99.90;;;;;;5053251;28;20116;-83
2021/11/26 01:20:53;;;;;;;0.00;0.00;;;5.10;99.90;;;;;;5053636;28;20399;-83
2021/11/26 01:23:18;;;;;;;0.80;0.80;;;5.10;99.90;;;;;;5052466;28;20028;-83
2021/11/26 01:25:45;;;;;;;0.15;0.15;;;5.00;99.90;;;;;;5052314;28;20083;-83
2021/11/26 01:28:11;;;;;;;0.10;0.10;;;4.90;99.90;;;;;;5053143;28;20025;-83
2021/11/26 01:30:41;;;;;;;0.00;0.00;;;4.80;99.90;;;;;;5054037;28;20104;-83
2021/11/26 01:33:09;;;;;;;0.00;0.00;;;4.80;99.90;;;;;;5050720;28;20029;-83
2021/11/26 01:35:36;;;;;;;2.10;1.25;;;4.70;99.90;;;;;;5053268;28;20096;-83
2021/11/26 01:38:04;;;;;;;0.10;0.10;;;4.70;99.90;;;;;;5052598;28;20082;-83
2021/11/26 01:40:31;;;;;;;0.10;0.10;;;4.60;99.90;;;;;;5053597;28;20023;-83
2021/11/26 01:42:57;;;;;;;0.32;0.32;;;4.70;99.90;;;;;;5053231;28;20067;-82
2021/11/26 01:45:24;;;;;;;0.20;0.20;;;4.60;99.90;;;;;;5053405;28;20028;-83
2021/11/26 01:47:50;;;;;;;3.65;1.08;;;4.50;99.90;;;;;;5052380;28;20712;-83
2021/11/26 01:50:18;;;;;;;0.90;0.90;;;4.50;99.90;;;;;;5053164;28;20021;-83
2021/11/26 01:52:45;;;;;;;0.95;0.57;;;4.40;99.90;;;;;;5053205;28;20028;-82
2021/11/26 01:55:11;;;;;;;0.35;0.35;;;4.40;99.90;;;;;;5051552;28;20442;-83
2021/11/26 01:57:37;;;;;;;0.32;0.32;;;4.40;99.90;;;;;;5053122;28;20024;-83
2021/11/26 02:00:08;;;;;;;0.10;0.10;;;4.30;99.90;;;;;;5052522;28;20082;-83
2021/11/26 02:02:34;;;;;;;0.00;0.00;;;4.30;99.90;;;;;;5052583;28;20535;-82
2021/11/26 02:04:59;;;;;;;3.60;1.38;;;4.30;99.90;;;;;;5053041;28;20017;-82
2021/11/26 02:07:25;;;;;;;0.10;0.10;;;4.20;99.90;;;;;;5052571;28;20068;-82
2021/11/26 02:09:51;;;;;;;0.05;0.05;;;4.20;99.90;;;;;;5052609;28;20025;-83
2021/11/26 02:12:17;;;;;;;1.33;0.70;;;4.20;99.90;;;;;;5052980;28;20032;-83
2021/11/26 02:14:42;;;;;;;0.10;0.10;;;4.10;99.90;;;;;;5051449;28;20036;-82
2021/11/26 02:17:08;;;;;;;0.00;0.00;;;4.10;99.90;;;;;;5052578;28;20025;-82
2021/11/26 02:19:34;;;;;;;1.10;0.90;;;4.10;99.90;;;;;;5052823;28;20029;-83
2021/11/26 02:22:00;;;;;;;0.00;0.00;;;4.10;99.90;;;;;;5051628;28;20025;-83
2021/11/26 02:24:25;;;;;;;0.38;0.20;;;4.10;99.90;;;;;;5052380;28;20053;-82
2021/11/26 02:26:52;;;;;;;0.00;0.00;;;4.20;99.90;;;;;;5051636;28;20112;-83
2021/11/26 02:29:20;;;;;;;0.00;0.00;;;4.20;99.90;;;;;;5052524;28;20033;-83
2021/11/26 02:31:46;;;;;;;0.00;0.00;;;4.30;99.90;;;;;;5052774;28;20430;-83
2021/11/26 02:34:13;;;;;;;0.00;0.00;;;4.30;99.90;;;;;;5051148;28;20364;-83
2021/11/26 02:36:39;;;;;;;0.22;0.10;;;4.40;99.90;;;;;;5052501;28;20032;-83
2021/11/26 02:39:09;;;;;;;3.22;0.32;;;4.40;99.90;;;;;;5051049;28;20029;-83
2021/11/26 02:41:36;;;;;;;0.22;0.22;;;4.40;99.90;;;;;;5052931;28;20025;-83
2021/11/26 02:44:02;;;;;;;0.20;0.20;;;4.30;99.90;;;;;;5052529;28;20044;-83
2021/11/26 02:46:28;;;;;;;0.00;0.00;;;4.40;99.90;;;;;;5051279;28;20500;-83
2021/11/26 02:48:53;;;;;;;0.20;0.20;;;4.30;99.90;;;;;;5051970;28;20158;-82
2021/11/26 02:51:19;;;;;;;0.00;0.00;;;4.30;99.90;;;;;;5052221;28;20027;-83
2021/11/26 02:53:45;;;;;;;0.00;0.00;;;4.30;99.90;;;;;;5051086;28;20094;-82
2021/11/26 02:56:10;;;;;;;0.00;0.00;;;4.30;99.90;;;;;;5052130;28;20395;-83
2021/11/26 02:58:36;;;;;;;3.33;0.68;;;4.30;99.90;;;;;;5053820;28;20021;-83
2021/11/26 03:01:02;;;;;;;0.00;0.00;;;4.30;99.90;;;;;;5055822;28;20033;-82
2021/11/26 03:03:28;;;;;;;0.25;0.15;;;4.30;99.90;;;;;;5055863;28;20025;-83
2021/11/26 03:06:03;;;;;;;1.35;0.65;;;4.30;99.90;;;;;;5056425;28;20028;-83
2021/11/26 03:08:31;;;;;;;0.00;0.00;;;4.30;99.90;;;;;;5054937;28;20399;-83
2021/11/26 03:10:58;;;;;;;0.00;0.00;;;4.30;99.90;;;;;;5056153;28;20025;-82
2021/11/26 03:13:24;;;;;;;0.00;0.00;;;4.20;99.90;;;;;;5056016;28;20120;-83
2021/11/26 03:15:50;;;;;;;0.00;0.00;;;4.20;99.90;;;;;;5054329;28;20400;-82
2021/11/26 03:18:17;;;;;;;0.00;0.00;;;4.20;99.90;;;;;;5053967;28;20025;-83
2021/11/26 03:20:44;;;;;;;0.00;0.00;;;4.10;99.90;;;;;;5054574;28;20408;-83
2021/11/26 03:23:10;;;;;;;0.00;0.00;;;4.10;99.90;;;;;;5054715;28;20025;-83
2021/11/26 03:25:36;;;;;;;0.00;0.00;;;4.10;99.90;;;;;;5055543;28;20412;-83
2021/11/26 03:28:02;;;;;;;0.13;0.13;;;4.10;99.90;;;;;;5055826;28;20082;-83
2021/11/26 03:30:28;;;;;;;0.00;0.00;;;4.10;99.90;;;;;;5056019;28;20021;-83
2021/11/26 03:32:56;;;;;;;0.38;0.25;;;4.10;99.90;;;;;;5055651;28;20068;-83
2021/11/26 03:35:22;;;;;;;2.17;1.08;;;4.00;99.90;;;;;;5054813;28;20025;-83
2021/11/26 03:37:48;;;;;;;0.00;0.00;;;4.00;99.90;;;;;;5054487;28;20044;-83
2021/11/26 03:40:16;;;;;;;0.00;0.00;;;4.00;99.90;;;;;;5054878;28;20017;-83
2021/11/26 03:42:42;;;;;;;0.00;0.00;;;4.00;99.90;;;;;;5054456;28;20025;-81
2021/11/26 03:45:09;;;;;;;0.03;0.03;;;4.00;99.90;;;;;;5055451;28;20396;-82
2021/11/26 03:47:35;;;;;;;0.30;0.30;;;3.90;99.90;;;;;;5053931;28;20029;-83
2021/11/26 03:50:00;;;;;;;0.00;0.00;;;3.90;99.90;;;;;;5055664;28;20395;-83
2021/11/26 03:52:26;;;;;;;6.20;0.93;;;3.90;99.90;;;;;;5055054;28;20025;-83
2021/11/26 03:54:52;;;;;;;0.00;0.00;;;3.90;99.90;;;;;;5054527;28;20024;-83
2021/11/26 03:57:17;;;;;;;0.00;0.00;;;3.90;99.90;;;;;;5054021;28;20529;-83
2021/11/26 03:59:43;;;;;;;0.47;0.15;;;3.90;99.90;;;;;;5051654;28;20023;-82
2021/11/26 04:02:09;;;;;;;0.22;0.22;;;3.90;99.90;;;;;;5054768;28;20051;-83
2021/11/26 04:04:35;;;;;;;0.00;0.00;;;4.00;99.90;;;;;;5054420;28;20048;-83
2021/11/26 04:07:01;;;;;;;0.00;0.00;;;3.90;99.90;;;;;;5054234;28;20113;-82
2021/11/26 04:09:27;;;;;;;0.00;0.00;;;3.90;99.90;;;;;;5054544;28;20638;-83
2021/11/26 04:11:52;;;;;;;0.00;0.00;;;3.90;99.90;;;;;;5053822;28;20025;-83
2021/11/26 04:14:18;;;;;;;0.20;0.20;;;4.00;99.90;;;;;;5054708;28;20421;-83
2021/11/26 04:16:46;;;;;;;0.00;0.00;;;4.00;99.90;;;;;;5055252;28;20033;-82
2021/11/26 04:19:12;;;;;;;0.00;0.00;;;3.90;99.90;;;;;;5054559;28;20021;-82
2021/11/26 04:21:38;;;;;;;0.00;0.00;;;3.90;99.90;;;;;;5053728;28;20449;-83
2021/11/26 04:24:04;;;;;;;0.15;0.15;;;3.90;99.90;;;;;;5053384;28;20034;-82
2021/11/26 04:26:30;;;;;;;0.00;0.00;;;3.80;99.90;;;;;;5054707;28;20033;-83
2021/11/26 04:28:57;;;;;;;0.10;0.10;;;3.80;99.90;;;;;;5054791;28;20025;-83
2021/11/26 04:31:22;;;;;;;0.00;0.00;;;3.80;99.90;;;;;;5053770;28;20561;-83
2021/11/26 04:33:48;;;;;;;0.60;0.55;;;3.80;99.90;;;;;;5053788;28;20017;-82
2021/11/26 04:36:14;;;;;;;0.05;0.05;;;3.70;99.90;;;;;;5054056;28;20025;-83
2021/11/26 04:38:40;;;;;;;0.00;0.00;;;3.70;99.90;;;;;;5054869;28;20104;-83
2021/11/26 04:41:07;;;;;;;0.55;0.55;;;3.60;99.90;;;;;;5054351;28;20056;-82
2021/11/26 04:43:32;;;;;;;0.05;0.05;;;3.60;99.90;;;;;;5054412;28;20053;-83
2021/11/26 04:45:58;;;;;;;1.65;0.98;;;3.50;99.90;;;;;;5054421;28;20498;-83
2021/11/26 04:48:24;;;;;;;0.30;0.30;;;3.50;99.90;;;;;;5053902;28;20025;-83
2021/11/26 04:50:51;;;;;;;0.00;0.00;;;3.50;99.90;;;;;;5054447;28;20483;-82
2021/11/26 04:53:18;;;;;;;0.10;0.10;;;3.40;99.90;;;;;;5053923;28;20044;-82
2021/11/26 04:55:44;;;;;;;0.00;0.00;;;3.40;99.90;;;;;;5054293;28;20052;-83
2021/11/26 04:58:10;;;;;;;0.00;0.00;;;3.40;99.90;;;;;;5053679;28;20021;-83
2021/11/26 05:00:37;;;;;;;0.00;0.00;;;3.30;99.90;;;;;;5053539;28;20082;-83
2021/11/26 05:03:02;;;;;;;0.00;0.00;;;3.30;99.90;;;;;;5053804;28;20487;-83
2021/11/26 05:05:28;;;;;;;0.15;0.15;;;3.30;99.90;;;;;;5055155;28;20070;-83
2021/11/26 05:07:54;;;;;;;0.00;0.00;;;3.30;99.90;;;;;;5053995;28;20036;-83
2021/11/26 05:10:20;;;;;;;0.00;0.00;;;3.30;99.90;;;;;;5053783;28;20052;-83
2021/11/26 05:12:55;;;;;;;0.00;0.00;;;3.30;99.90;;;;;;5053838;28;20047;-82
2021/11/26 05:15:25;;;;;;;0.00;0.00;;;3.30;99.90;;;;;;5052275;28;20024;-82
2021/11/26 05:17:58;;;;;;;0.00;0.00;;;3.30;99.90;;;;;;5052395;28;20025;-83
2021/11/26 05:20:24;;;;;;;0.10;0.10;;;3.30;99.90;;;;;;5053854;28;20033;-83
2021/11/26 05:22:50;;;;;;;0.00;0.00;;;3.30;99.90;;;;;;5053754;28;20029;-83
2021/11/26 05:25:16;;;;;;;0.00;0.00;;;3.30;99.90;;;;;;5053048;28;20094;-83
2021/11/26 05:27:42;;;;;;;0.00;0.00;;;3.30;99.90;;;;;;5053539;28;20029;-83
2021/11/26 05:30:09;;;;;;;0.30;0.30;;;3.30;99.90;;;;;;5053560;28;20025;-83
2021/11/26 05:32:37;;;;;;;0.00;0.00;;;3.30;99.90;;;;;;5053460;28;20025;-82
2021/11/26 05:35:05;;;;;;;0.00;0.00;;;3.30;99.90;;;;;;5050994;28;20055;-83
2021/11/26 05:37:30;;;;;;;0.05;0.05;;;3.30;99.90;;;;;;5053612;28;20538;-83
2021/11/26 05:39:56;;;;;;;0.35;0.35;;;3.30;99.90;;;;;;5052020;28;20065;-82
2021/11/26 05:42:22;;;;;;;0.00;0.00;;;3.40;99.90;;;;;;5053413;28;20029;-83
2021/11/26 05:44:47;;;;;;;0.08;0.08;;;3.40;99.90;;;;;;5051863;28;20037;-82
2021/11/26 05:47:13;;;;;;;0.17;0.17;;;3.40;99.90;;;;;;5052987;28;20116;-83
2021/11/26 05:49:39;;;;;;;0.00;0.00;;;3.40;99.90;;;;;;5053187;28;20025;-83
2021/11/26 05:52:05;;;;;;;0.00;0.00;;;3.40;99.90;;;;;;5051666;28;20031;-83
2021/11/26 05:54:31;;;;;;;0.00;0.00;;;3.40;99.90;;;;;;5053322;28;20101;-83
2021/11/26 05:56:57;;;;;;;2.17;0.32;;;3.40;99.90;;;;;;5051510;28;20550;-82
2021/11/26 05:59:22;;;;;;;2.28;1.17;;;3.40;99.90;;;;;;5052059;28;20547;-83
2021/11/26 06:01:48;;;;;;;0.00;0.00;;;3.40;99.90;;;;;;5053083;28;20437;-82
2021/11/26 06:04:14;;;;;;;0.00;0.00;;;3.40;99.90;;;;;;5051436;28;20048;-83
2021/11/26 06:06:39;;;;;;;0.00;0.00;;;3.40;99.90;;;;;;5052864;28;20411;-83
2021/11/26 06:09:05;;;;;;;0.10;0.10;;;3.50;99.90;;;;;;5051532;28;20017;-82
2021/11/26 06:11:31;;;;;;;1.90;0.80;;;3.40;99.90;;;;;;5052851;28;20494;-83
2021/11/26 06:13:56;;;;;;;0.75;0.75;;;3.40;99.90;;;;;;5052905;28;20388;-83
2021/11/26 06:16:22;;;;;;;0.00;0.00;;;3.50;99.90;;;;;;5052880;28;20037;-83
2021/11/26 06:18:48;;;;;;;0.00;0.00;;;3.50;99.90;;;;;;5052390;28;20094;-82
2021/11/26 06:21:14;;;;;;;0.20;0.20;;;3.50;99.90;;;;;;5052792;28;20025;-83
2021/11/26 06:23:39;;;;;;;0.10;0.10;;;3.50;99.90;;;;;;5051930;28;20029;-83
2021/11/26 06:26:05;;;;;;;0.00;0.00;;;3.40;99.90;;;;;;5052163;28;20052;-83
2021/11/26 06:28:30;;;;;;;0.00;0.00;;;3.40;99.90;;;;;;5052465;28;20025;-83
2021/11/26 06:30:56;;;;;;;0.52;0.52;;;3.40;99.90;;;;;;5052576;28;20044;-83
2021/11/26 06:33:22;;;;;;;0.13;0.13;;;3.30;99.90;;;;;;5051723;28;20043;-83
2021/11/26 06:35:47;;;;;;;0.13;0.13;;;3.30;99.90;;;;;;5050189;28;20036;-82
2021/11/26 06:38:13;;;;;;;0.00;0.00;;;3.30;99.90;;;;;;5052518;28;20073;-83
2021/11/26 06:40:39;;;;;;;0.60;0.30;;;3.30;99.90;;;;;;5052427;28;20479;-83
2021/11/26 06:43:05;;;;;;;0.82;0.82;;;3.30;99.90;;;;;;5052403;28;20048;-83
2021/11/26 06:45:30;;;;;;;0.30;0.30;;;3.20;99.90;;;;;;5052597;28;20021;-83
2021/11/26 06:47:56;;;;;;;0.08;0.08;;;3.20;99.90;;;;;;5050534;28;20476;-82
2021/11/26 06:50:22;;;;;;;0.00;0.00;;;3.20;99.90;;;;;;5052497;28;20061;-83
2021/11/26 06:52:48;;;;;;;0.25;0.25;;;3.10;99.90;;;;;;5052477;28;20108;-83
2021/11/26 06:55:15;;;;;;;0.35;0.35;;;3.10;99.90;;;;;;5051895;28;20392;-83
2021/11/26 06:57:41;;;;;;;0.63;0.52;;;3.10;99.90;;;;;;5050162;28;20430;-83
2021/11/26 07:00:10;;;;;;;1.00;0.95;;;3.00;99.90;;;;;;5051110;28;20028;-83
2021/11/26 07:02:36;;;;;;;0.88;0.25;;;3.00;99.90;;;;;;5033931;28;20029;-82
2021/11/26 07:05:02;;;;;;;0.00;0.00;;;3.00;99.90;;;;;;5048176;28;20033;-82
2021/11/26 07:07:28;;;;;;;0.00;0.00;;;3.10;99.90;;;;;;5050355;28;20033;-82
2021/11/26 07:09:54;;;;;;;0.52;0.52;;;3.10;99.90;;;;;;5049922;28;20112;-82
2021/11/26 07:12:19;;;;;;;0.00;0.00;;;3.10;99.90;;;;;;5049554;28;20013;-83
2021/11/26 07:14:46;;;;;;;0.50;0.50;;;3.10;99.90;;;;;;5051985;28;20029;-83
2021/11/26 07:17:15;;;;;;;2.85;1.45;;;3.10;99.90;;;;;;5051847;28;20033;-83
2021/11/26 07:19:46;;;;;;;0.10;0.10;;;3.00;99.90;;;;;;5050735;28;20448;-83
2021/11/26 07:22:11;;;;;;;0.00;0.00;;;3.00;99.90;;;;;;5050149;28;20025;-83
2021/11/26 07:24:37;;;;;;;0.00;0.00;;;3.10;99.90;;;;;;5047934;28;20048;-80
2021/11/26 07:27:03;;;;;;;0.00;0.00;;;3.00;99.90;;;;;;5046423;28;20021;-80
2021/11/26 07:29:29;;;;;;;0.20;0.20;;;3.10;99.90;;;;;;5050704;28;20021;-80
2021/11/26 07:31:55;;;;;;;0.10;0.10;;;3.10;99.90;;;;;;5050597;28;20375;-80
2021/11/26 07:34:21;;;;;;;15.77;2.15;;;3.10;99.90;;;;;;5045452;28;20063;-80
2021/11/26 07:36:47;;;;;;;0.00;0.00;;;3.20;99.90;;;;;;5049038;28;20091;-78
2021/11/26 07:39:13;;;;;;;0.00;0.00;;;3.20;99.90;;;;;;5050367;28;20054;-78
2021/11/26 07:41:39;;;;;;;0.00;0.00;;;3.20;99.90;;;;;;5050103;28;20495;-78
2021/11/26 07:44:05;;;;;;;0.05;0.05;;;3.20;99.90;;;;;;5050963;28;20029;-79
2021/11/26 07:46:31;;;;;;;0.28;0.28;;;3.30;99.90;;;;;;5053499;28;20050;-78
2021/11/26 07:48:57;;;;;;;0.10;0.10;;;3.30;99.90;;;;;;5052727;28;20029;-80
2021/11/26 07:51:24;;;;;;;0.40;0.40;;;3.40;99.90;;;;;;5052817;28;20337;-76
2021/11/26 07:53:49;;;;;;;0.10;0.10;;;3.50;99.90;;;;;;5047028;28;20025;-75
2021/11/26 07:56:15;;;;;;;0.00;0.00;;;3.60;99.90;;;;;;5046129;28;20078;-79
2021/11/26 07:58:41;;;;;;;0.10;0.10;;;3.70;99.90;;;;;;5052777;28;20025;-77
2021/11/26 08:01:07;;;;;;;1.00;0.75;;;3.80;99.90;;;;;;5051188;28;20051;-78
2021/11/26 08:03:32;;;;;;;0.73;0.68;;;3.90;99.90;;;;;;5048631;28;20040;-76
2021/11/26 08:06:00;;;;;;;0.00;0.00;;;4.00;99.90;;;;;;5052002;28;20033;-78
2021/11/26 08:08:25;;;;;;;4.28;1.77;;;4.00;99.90;;;;;;5042352;28;20022;-78
2021/11/26 08:10:51;;;;;;;0.00;0.00;;;4.10;99.90;;;;;;5036283;28;20107;-79
2021/11/26 08:13:17;;;;;;;0.00;0.00;;;4.20;99.90;;;;;;5051788;28;20025;-78
2021/11/26 08:15:42;;;;;;;2.42;0.68;;;4.30;99.90;;;;;;5053207;28;20029;-79
2021/11/26 08:18:08;;;;;;;0.00;0.00;;;4.40;99.90;;;;;;5053467;28;20111;-79
2021/11/26 08:20:37;;;;;;;1.45;1.30;;;4.40;99.90;;;;;;5053657;28;20112;-80
2021/11/26 08:23:03;;;;;;;0.08;0.08;;;4.40;99.90;;;;;;5051628;28;20040;-80
2021/11/26 08:25:29;;;;;;;0.15;0.15;;;4.50;99.90;;;;;;5052599;28;20868;-80
2021/11/26 08:27:55;;;;;;;0.55;0.55;;;4.70;99.90;;;;;;5050518;28;20036;-80
2021/11/26 08:30:22;;;;;;;0.70;0.70;;;4.80;99.90;;;;;;5045561;28;20104;-77
2021/11/26 08:32:49;;;;;;;0.43;0.43;;;4.90;99.90;;;;;;5046721;28;20100;-77
2021/11/26 08:35:15;;;;;;;0.10;0.10;;;5.00;99.90;;;;;;5041713;28;20420;-79
2021/11/26 08:37:41;;;;;;;0.00;0.00;;;5.20;99.90;;;;;;5047079;28;20444;-79
2021/11/26 08:40:08;;;;;;;0.00;0.00;;;5.30;99.90;;;;;;5053045;28;20079;-79
2021/11/26 08:42:34;;;;;;;0.30;0.28;;;5.40;99.90;;;;;;5052932;28;20459;-79
2021/11/26 08:45:00;;;;;;;31.10;2.63;;;5.50;99.90;;;;;;5050576;28;20060;-80
2021/11/26 08:47:26;;;;;;;3.17;2.30;;;5.60;99.90;;;;;;5050883;28;20057;-80
2021/11/26 08:49:52;;;;;;;6.55;3.72;;;5.70;99.90;;;;;;5044559;28;20040;-80
2021/11/26 08:52:19;;;;;;;1.50;1.35;;;5.80;99.90;;;;;;5052538;28;20025;-78
2021/11/26 08:54:45;;;;;;;1.35;1.25;;;5.90;99.90;;;;;;5037322;28;20088;-77
2021/11/26 08:57:12;;;;;;;9.55;2.67;;;6.00;99.90;;;;;;5040708;28;20479;-79
2021/11/26 08:59:38;;;;;;;3.97;3.17;;;6.00;99.90;;;;;;5049355;28;20048;-81
2021/11/26 09:02:04;;;;;;;2.67;1.55;;;6.10;99.90;;;;;;5052582;28;20053;-81
2021/11/26 09:04:31;;;;;;;6.72;3.85;;;6.20;99.90;;;;;;5050465;28;20064;-81
2021/11/26 09:06:56;;;;;;;0.43;0.43;;;6.20;99.90;;;;;;5050634;28;20104;-83
2021/11/26 09:09:23;;;;;;;0.95;0.95;;;6.20;99.90;;;;;;5050634;28;20104;-83
2021/11/26 09:11:50;;;;;;;0.93;0.93;;;6.20;99.90;;;;;;5053158;28;20028;-82
2021/11/26 09:14:17;;;;;;;2.63;0.80;;;6.10;99.90;;;;;;5045032;28;20032;-80
2021/11/26 09:16:43;;;;;;;0.20;0.20;;;6.10;99.90;;;;;;5052513;28;20024;-82
2021/11/26 09:19:08;;;;;;;0.00;0.00;;;6.10;99.90;;;;;;5043538;28;20040;-82
2021/11/26 09:21:34;;;;;;;0.00;0.00;;;6.20;99.90;;;;;;5052032;28;20049;-83
2021/11/26 09:24:00;;;;;;;0.22;0.22;;;6.10;99.90;;;;;;5052954;28;20043;-84
2021/11/26 09:26:26;;;;;;;0.30;0.30;;;6.20;99.90;;;;;;5051631;28;20116;-84
2021/11/26 09:28:53;;;;;;;0.28;0.13;;;6.20;99.90;;;;;;5033681;28;20029;-84
2021/11/26 09:31:19;;;;;;;0.22;0.22;;;6.30;99.90;;;;;;5045145;28;20021;-83
2021/11/26 09:33:44;;;;;;;0.32;0.32;;;6.30;99.90;;;;;;5038368;28;20363;-84
2021/11/26 09:36:12;;;;;;;0.10;0.10;;;6.30;99.90;;;;;;5050557;28;20369;-81
2021/11/26 09:38:40;;;;;;;0.85;0.65;;;6.30;99.90;;;;;;5051043;28;20033;-80
2021/11/26 09:41:08;;;;;;;1.45;0.68;;;6.40;99.90;;;;;;5049812;28;20085;-79
2021/11/26 09:43:35;;;;;;;0.15;0.15;;;6.30;99.90;;;;;;5052122;28;20104;-79
2021/11/26 09:46:04;;;;;;;0.13;0.13;;;6.40;99.90;;;;;;5038426;28;20029;-81
2021/11/26 09:48:32;;;;;;;0.00;0.00;;;6.50;99.90;;;;;;5030477;28;20377;-79
2021/11/26 09:50:57;;;;;;;2.92;1.85;;;6.60;99.90;;;;;;5032512;28;20093;-80
2021/11/26 09:53:26;;;;;;;0.30;0.20;;;6.60;99.90;;;;;;5049376;28;20025;-79
2021/11/26 09:56:00;;;;;;;0.65;0.50;;;6.70;99.90;;;;;;5037073;28;20104;-79
2021/11/26 09:58:29;;;;;;;0.00;0.00;;;6.70;99.90;;;;;;5045301;28;20036;-80
2021/11/26 10:00:56;;;;;;;13.05;1.27;;;6.90;99.90;;;;;;5050919;28;20021;-81
2021/11/26 10:03:36;;;;;;;0.10;0.10;;;6.90;99.90;;;;;;5033583;28;20028;-81
2021/11/26 10:06:01;;;;;;;0.30;0.30;;;7.10;99.90;;;;;;5051475;28;20025;-82
2021/11/26 10:08:27;;;;;;;0.40;0.28;;;7.10;99.90;;;;;;5051242;28;20082;-81
2021/11/26 10:11:01;;;;;;;0.32;0.32;;;7.20;99.90;;;;;;5050342;28;20028;-79
2021/11/26 10:13:30;;;;;;;0.10;0.10;;;7.20;99.90;;;;;;5050506;28;20029;-80
2021/11/26 10:15:56;;;;;;;0.00;0.00;;;7.30;99.90;;;;;;5049455;28;20036;-82
2021/11/26 10:18:27;;;;;;;0.52;0.52;;;7.30;99.90;;;;;;5038351;28;20033;-82
2021/11/26 10:21:10;;;;;;;0.20;0.20;;;7.40;99.90;;;;;;5048287;28;20021;-82
2021/11/26 10:23:44;;;;;;;2.75;0.50;;;7.50;99.90;;;;;;5048916;28;20029;-79
2021/11/26 10:26:26;;;;;;;3.50;0.90;;;7.50;99.90;;;;;;5050950;28;20041;-82
2021/11/26 10:28:59;;;;;;;1.45;1.35;;;7.60;99.90;;;;;;5050628;28;20503;-83
2021/11/26 10:31:31;;;;;;;0.43;0.43;;;7.60;99.90;;;;;;5045646;28;20022;-84
2021/11/26 10:34:09;;;;;;;1.17;0.93;;;7.60;99.90;;;;;;5039896;28;20013;-80
2021/11/26 10:36:43;;;;;;;0.08;0.08;;;7.70;99.90;;;;;;5051096;28;20750;-81
2021/11/26 10:39:16;;;;;;;0.00;0.00;;;7.70;99.90;;;;;;5050493;28;20491;-82
2021/11/26 10:41:48;;;;;;;0.00;0.00;;;7.80;99.90;;;;;;5047934;28;20087;-84
2021/11/26 10:44:15;;;;;;;0.13;0.13;;;7.90;99.90;;;;;;5040581;28;20025;-80
2021/11/26 10:59:49;;;;;;;0.47;0.47;;;8.50;99.90;;;;;;5049424;28;20562;-80
2021/11/26 11:02:28;;;;;;;0.20;0.20;;;8.60;99.90;;;;;;5030830;28;20183;-79
2021/11/26 11:04:55;;;;;;;0.35;0.35;;;8.60;99.90;;;;;;5044359;28;20033;-80
2021/11/26 11:07:20;;;;;;;0.00;0.00;;;8.60;99.90;;;;;;5027040;28;20033;-80
2021/11/26 11:09:47;;;;;;;0.00;0.00;;;8.70;99.90;;;;;;5046244;28;20048;-81
2021/11/26 11:12:15;;;;;;;0.00;0.00;;;8.80;99.90;;;;;;5047429;28;20021;-81
2021/11/26 11:14:56;;;;;;;0.57;0.17;;;9.20;99.90;;;;;;5050361;28;20021;-79
2021/11/26 11:17:24;;;;;;;0.10;0.10;;;9.50;99.90;;;;;;5040344;28;20037;-82
2021/11/26 11:19:52;;;;;;;1.55;0.45;;;9.60;99.90;;;;;;5044099;28;20040;-80
2021/11/26 11:22:18;;;;;;;0.05;0.05;;;9.60;99.90;;;;;;5035272;28;20514;-79
2021/11/26 11:24:44;;;;;;;0.03;0.03;;;9.70;99.90;;;;;;5042507;28;20534;-77
2021/11/26 11:27:10;;;;;;;2.30;1.15;;;9.70;99.90;;;;;;5034196;28;20029;-80
2021/11/26 11:29:36;;;;;;;0.00;0.00;;;9.80;99.90;;;;;;5036520;28;20392;-79
2021/11/26 11:32:02;;;;;;;0.00;0.00;;;9.80;99.90;;;;;;5036090;28;20447;-81
2021/11/26 11:34:30;;;;;;;0.00;0.00;;;10.00;99.90;;;;;;5039454;28;20026;-80
2021/11/26 11:36:58;;;;;;;0.00;0.00;;;10.10;99.90;;;;;;5041960;28;20075;-80
2021/11/26 11:39:25;;;;;;;0.00;0.00;;;10.20;99.90;;;;;;5048870;28;20029;-83
2021/11/26 11:41:54;;;;;;;1.25;1.08;;;10.40;99.90;;;;;;5048633;28;20025;-80
2021/11/26 11:44:33;;;;;;;0.88;0.20;;;10.30;99.90;;;;;;5046686;28;20033;-80
2021/11/26 11:47:14;;;;;;;0.43;0.43;;;10.10;99.90;;;;;;5048755;28;20036;-80
2021/11/26 11:49:40;;;;;;;0.00;0.00;;;10.10;99.90;;;;;;5044008;28;20035;-78
2021/11/26 11:52:10;;;;;;;0.20;0.20;;;10.20;99.90;;;;;;5049200;28;20037;-79
2021/11/26 11:54:39;;;;;;;0.03;0.03;;;10.30;99.90;;;;;;5045757;28;20419;-77
2021/11/26 11:57:06;;;;;;;0.20;0.17;;;10.30;99.90;;;;;;5042382;28;20921;-79
2021/11/26 11:59:37;;;;;;;1.55;0.15;;;10.50;99.90;;;;;;5035924;28;20037;-79
2021/11/26 12:02:07;;;;;;;0.00;0.00;;;10.50;99.90;;;;;;5034014;28;20040;-78
2021/11/26 12:04:42;;;;;;;0.00;0.00;;;10.60;99.90;;;;;;5045822;28;20033;-77
2021/11/26 12:07:08;;;;;;;0.00;0.00;;;10.40;99.90;;;;;;5042642;28;20032;-81
2021/11/26 12:09:36;;;;;;;0.00;0.00;;;10.30;99.90;;;;;;5042746;28;20075;-79
2021/11/26 12:12:20;;;;;;;1.27;0.45;;;10.30;99.90;;;;;;5047070;28;20488;-82
2021/11/26 12:14:49;;;;;;;0.00;0.00;;;10.50;99.90;;;;;;5044968;28;20138;-79
2021/11/26 12:17:35;;;;;;;0.00;0.00;;;10.70;99.90;;;;;;5034349;28;20033;-81
2021/11/26 12:20:18;;;;;;;0.00;0.00;;;10.80;99.90;;;;;;5044234;28;20123;-81
2021/11/26 12:22:58;;;;;;;0.00;0.00;;;10.90;99.90;;;;;;5045433;28;20018;-81
2021/11/26 12:28:04;;;;;;;0.10;0.10;;;10.90;99.90;;;;;;5040028;28;20068;-78
2021/11/26 12:30:29;;;;;;;0.30;0.30;;;10.80;99.90;;;;;;5040774;28;20029;-80
2021/11/26 12:32:55;;;;;;;0.00;0.00;;;10.90;99.90;;;;;;5042010;28;20472;-81
2021/11/26 12:35:21;;;;;;;0.00;0.00;;;10.70;99.90;;;;;;5042596;28;20028;-80
2021/11/26 12:37:59;;;;;;;0.00;0.00;;;10.60;99.90;;;;;;5043978;28;20510;-79
2021/11/26 12:40:25;;;;;;;0.08;0.08;;;10.60;99.90;;;;;;5042702;28;20017;-82
2021/11/26 12:43:03;;;;;;;0.15;0.15;;;10.60;99.90;;;;;;5036134;28;20079;-80
2021/11/26 12:45:34;;;;;;;0.00;0.00;;;10.70;99.90;;;;;;5046441;28;20028;-81
2021/11/26 12:48:10;;;;;;;0.00;0.00;;;10.80;99.90;;;;;;5051801;28;20025;-80
2021/11/26 12:53:25;;;;;;;0.00;0.00;;;11.80;99.90;;;;;;5040680;28;20036;-80
2021/11/26 12:56:03;;;;;;;0.00;0.00;;;11.80;99.90;;;;;;5048676;28;20021;-81
2021/11/26 12:58:31;;;;;;;0.00;0.00;;;11.40;99.90;;;;;;5049892;28;20496;-83
2021/11/26 13:01:05;;;;;;;0.08;0.08;;;11.00;99.90;;;;;;5038873;28;20100;-83
2021/11/26 13:03:39;;;;;;;0.00;0.00;;;10.80;99.90;;;;;;5033242;28;20048;-82
2021/11/26 13:06:05;;;;;;;0.65;0.30;;;10.70;99.90;;;;;;5047363;28;20029;-84
2021/11/26 13:08:31;;;;;;;0.00;0.00;;;10.60;99.90;;;;;;5049471;28;20025;-80
2021/11/26 13:11:02;;;;;;;0.00;0.00;;;10.50;99.90;;;;;;5046779;28;20028;-83
2021/11/26 13:13:29;;;;;;;0.00;0.00;;;10.50;99.90;;;;;;5036003;28;20085;-82